ADDS METAR Data INFO
IDs: Format: Raw Decoded Include TAF

Data at: 1914 UTC 23 Apr 2018

KMFV 231855Z AUTO 12011G17KT 10SM CLR 17/M01 A3044 RMK AO2 T01651009
KMFV 231835Z AUTO 12008G15KT 070V140 10SM SCT050 17/M01 A3044 RMK AO2 T01651011
KMFV 231815Z AUTO 12009G15KT 10SM SCT050 17/00 A3044 RMK AO2 T01720003
KMFV 231755Z AUTO 12011G18KT 10SM CLR 18/M01 A3044 RMK AO2 T01761011 10184 20114
KMFV 231735Z AUTO 13010G16KT 10SM SCT042 17/00 A3045 RMK AO2 T01731001
KMFV 231715Z AUTO 14011G16KT 10SM SCT042 18/01 A3045 RMK AO2 T01770007
KMFV 231655Z AUTO 15015KT 10SM SCT042 18/01 A3045 RMK AO2 T01820014
KMFV 231635Z AUTO 13010G14KT 10SM CLR 17/01 A3044 RMK AO2 T01660010
KMFV 231615Z AUTO 12010G15KT 080V140 10SM CLR 17/02 A3044 RMK AO2 T01710019
KMFV 231555Z AUTO 10009KT 10SM CLR 17/02 A3044 RMK AO2 T01740020
KMFV 231535Z AUTO 13010G14KT 10SM CLR 17/03 A3044 RMK AO2 T01680029
KMFV 231515Z AUTO 13009KT 10SM CLR 17/02 A3044 RMK AO2 T01670024
KMFV 231455Z AUTO 10006G14KT 070V130 10SM CLR 17/02 A3044 RMK AO2 T01660023
KMFV 231435Z AUTO 13009KT 10SM CLR 17/04 A3044 RMK AO2 T01650043
KMFV 231415Z AUTO 10007KT 060V120 10SM CLR 17/06 A3044 RMK AO2 T01660058
KMFV 231355Z AUTO 14008G14KT 090V150 10SM CLR 16/07 A3044 RMK AO2 T01630067
KMFV 231335Z AUTO 12005KT 10SM CLR 16/07 A3043 RMK AO2 T01630073
KMFV 231315Z AUTO 12008KT 10SM CLR 16/07 A3043 RMK AO2 T01550070
KMFV 231255Z AUTO 11005KT 10SM CLR 15/08 A3043 RMK AO2 T01470076
KMFV 231235Z AUTO 12004KT 10SM CLR 14/08 A3043 RMK AO2 T01420079
KMFV 231215Z AUTO 12004KT 10SM CLR 13/07 A3043 RMK AO2 T01270073
KMFV 231155Z AUTO 11003KT 10SM CLR 11/07 A3043 RMK AO2 T01120073 10112 20064
KMFV 231135Z AUTO 00000KT 10SM CLR 09/07 A3042 RMK AO2 T00850067
KMFV 231115Z AUTO 00000KT 10SM SCT070 10/06 A3042 RMK AO2 T00970058
KMFV 231055Z AUTO 13005KT 10SM CLR 08/06 A3042 RMK AO2 T00770056
KMFV 231035Z AUTO 12005KT 10SM SCT070 07/05 A3042 RMK AO2 T00710054
KMFV 231015Z AUTO 10003KT 10SM SCT070 07/06 A3041 RMK AO2 T00680055
KMFV 230955Z AUTO 09004KT 10SM SCT070 07/05 A3041 RMK AO2 T00650053
KMFV 230935Z AUTO 00000KT 10SM CLR 07/06 A3040 RMK AO2 T00680055
KMFV 230915Z AUTO 00000KT 10SM CLR 07/05 A3040 RMK AO2 T00680053
KMFV 230855Z AUTO 00000KT 10SM CLR 07/06 A3040 RMK AO2 T00730055
KMFV 230835Z AUTO 11003KT 10SM SCT090 08/06 A3040 RMK AO2 T00800057
KMFV 230815Z AUTO 00000KT 10SM BKN090 09/06 A3040 RMK AO2 T00900056
KMFV 230755Z AUTO 12003KT 10SM SCT075 OVC090 09/06 A3040 RMK AO2 T00930060
KMFV 230735Z AUTO 00000KT 10SM SCT075 OVC090 10/06 A3039 RMK AO2 T00990056
KMFV 230715Z AUTO 13003KT 10SM SCT075 OVC090 10/06 A3039 RMK AO2 T00950058
KMFV 230655Z AUTO 12003KT 10SM OVC090 10/06 A3040 RMK AO2 T01000058
KMFV 230635Z AUTO 11003KT 10SM OVC090 10/06 A3040 RMK AO2 T00960058
KMFV 230615Z AUTO 12004KT 10SM BKN090 09/06 A3040 RMK AO2 T00850060
KMFV 230555Z AUTO 13004KT 10SM SCT090 08/05 A3040 RMK AO2 T00810052 10111 20081
KMFV 230535Z AUTO 13003KT 10SM SCT085 09/05 A3041 RMK AO2 T00870051
KMFV 230515Z AUTO 14003KT 10SM SCT085 OVC090 10/05 A3041 RMK AO2 T00950053
KMFV 230455Z AUTO 13003KT 10SM BKN085 10/05 A3041 RMK AO2 T00980052 401720034
KMFV 230435Z AUTO 14005KT 10SM OVC085 10/06 A3042 RMK AO2 T01010055
KMFV 230415Z AUTO 13003KT 10SM SCT075 OVC085 10/05 A3042 RMK AO2 T01010054
KMFV 230355Z AUTO 14005KT 10SM OVC075 10/05 A3041 RMK AO2 T01010052
KMFV 230335Z AUTO 13004KT 10SM OVC075 10/05 A3041 RMK AO2 T01010052
KMFV 230315Z AUTO 14005KT 10SM OVC075 10/05 A3040 RMK AO2 T00990052
KMFV 230255Z AUTO 12004KT 10SM SCT075 10/05 A3040 RMK AO2 T00990048
KMFV 230235Z AUTO 13005KT 10SM CLR 10/05 A3040 RMK AO2 T01000049
KMFV 230215Z AUTO 13006KT 10SM CLR 10/05 A3040 RMK AO2 T01010047
KMFV 230155Z AUTO 14007KT 10SM SCT110 10/05 A3040 RMK AO2 T01040050
KMFV 230135Z AUTO 13005KT 10SM CLR 11/05 A3040 RMK AO2 T01060051
KMFV 230115Z AUTO 14006KT 10SM CLR 11/05 A3039 RMK AO2 T01090050
KMFV 230055Z AUTO 14007KT 10SM SCT120 11/05 A3038 RMK AO2 T01090050
KMFV 230035Z AUTO 14006KT 10SM SCT120 11/05 A3038 RMK AO2 T01080050
KMFV 230015Z AUTO 14008KT 10SM CLR 11/05 A3037 RMK AO2 T01100047
KMFV 222355Z AUTO 14007KT 10SM CLR 11/05 A3037 RMK AO2 T01110051 10156 20111
KMFV 222335Z AUTO 14007KT 10SM CLR 11/05 A3037 RMK AO2 T01130050
KMFV 222315Z AUTO 13005KT 10SM CLR 12/05 A3037 RMK AO2 T01160046
KMFV 222255Z AUTO 14006KT 10SM CLR 12/03 A3036 RMK AO2 T01200032
KMFV 222235Z AUTO 12005KT 10SM CLR 13/03 A3036 RMK AO2 T01250025
KMFV 222215Z AUTO 13007KT 10SM CLR 13/02 A3036 RMK AO2 T01260019
KMFV 222155Z AUTO 13007KT 10SM CLR 13/02 A3037 RMK AO2 T01300018
KMFV 222135Z AUTO 12006KT 10SM CLR 14/03 A3037 RMK AO2 T01350025
KMFV 222115Z AUTO 14011KT 10SM CLR 13/03 A3038 RMK AO2 T01340030
KMFV 222055Z AUTO 12005KT 10SM CLR 14/04 A3038 RMK AO2 T01360036
KMFV 222035Z AUTO 12007KT 10SM CLR 14/04 A3038 RMK AO2 T01360041
KMFV 222015Z AUTO 14009KT 10SM CLR 14/04 A3038 RMK AO2 T01350041
KMFV 221955Z AUTO 12006KT 10SM CLR 14/05 A3039 RMK AO2 T01350050
KMFV 221935Z AUTO 12006KT 10SM SCT120 14/07 A3040 RMK AO2 T01380065
KMFV 221915Z AUTO 12008KT 10SM CLR 14/05 A3040 RMK AO2 T01440053
KMFV 221855Z AUTO 16008KT 10SM CLR 15/00 A3040 RMK AO2 T01510000
KMFV 221835Z AUTO 15009KT 10SM CLR 16/01 A3041 RMK AO2 T01560005
KMFV 221815Z AUTO 13010KT 10SM CLR 15/00 A3041 RMK AO2 T01520000
KMFV 221755Z AUTO 14008KT 100V170 10SM CLR 15/01 A3042 RMK AO2 T01530006 10172 20090
KMFV 221735Z AUTO 13006KT 10SM CLR 15/05 A3041 RMK AO2 T01540047
KMFV 221715Z AUTO 12007KT 10SM CLR 16/06 A3041 RMK AO2 T01560056
KMFV 221655Z AUTO 15008KT 120V180 10SM CLR 16/05 A3041 RMK AO2 T01630047
KMFV 221635Z AUTO 12006KT 10SM CLR 16/03 A3041 RMK AO2 T01600027
KMFV 221615Z AUTO 11006KT 10SM CLR 16/07 A3041 RMK AO2 T01640068
KMFV 221555Z AUTO 14009KT 10SM CLR 17/02 A3041 RMK AO2 T01650021
KMFV 221535Z AUTO 13008KT 10SM CLR 17/02 A3042 RMK AO2 T01690019
KMFV 221515Z AUTO 12004KT 10SM CLR 17/02 A3042 RMK AO2 T01690017
KMFV 221455Z AUTO 06004KT 10SM CLR 17/00 A3043 RMK AO2 T01680003
KMFV 221435Z AUTO 12003KT 10SM CLR 17/01 A3043 RMK AO2 T01700007
KMFV 221415Z AUTO 00000KT 10SM CLR 16/04 A3042 RMK AO2 T01610035
KMFV 221355Z AUTO 00000KT 10SM CLR 16/05 A3042 RMK AO2 T01590052
KMFV 221335Z AUTO 00000KT 10SM CLR 15/05 A3042 RMK AO2 T01460049
KMFV 221315Z AUTO 00000KT 10SM CLR 14/05 A3042 RMK AO2 T01390048
KMFV 221255Z AUTO 24003KT 10SM CLR 13/06 A3042 RMK AO2 T01310059
KMFV 221235Z AUTO 00000KT 10SM CLR 12/06 A3042 RMK AO2 T01220056
KMFV 221215Z AUTO 00000KT 10SM CLR 11/06 A3042 RMK AO2 T01100063
KMFV 221155Z AUTO 00000KT 10SM CLR 09/07 A3042 RMK AO2 T00870066 10087 20034
KMFV 221135Z AUTO 00000KT 10SM CLR 07/06 A3042 RMK AO2 T00660055
KMFV 221115Z AUTO 00000KT 10SM CLR 05/04 A3041 RMK AO2 T00450038
KMFV 221055Z AUTO 00000KT 10SM CLR 03/03 A3041 RMK AO2 T00340029
KMFV 221035Z AUTO 00000KT 10SM CLR 04/03 A3041 RMK AO2 T00360031
KMFV 221015Z AUTO 00000KT 10SM CLR 04/04 A3040 RMK AO2 T00400035
KMFV 220955Z AUTO 00000KT 10SM CLR 04/03 A3040 RMK AO2 T00360030
KMFV 220935Z AUTO 00000KT 10SM CLR 04/04 A3040 RMK AO2 T00410035
KMFV 220915Z AUTO 22003KT 10SM CLR 05/04 A3040 RMK AO2 T00480038
KMFV 220855Z AUTO 20003KT 10SM CLR 05/04 A3039 RMK AO2 T00500039
KMFV 220835Z AUTO 00000KT 10SM CLR 05/04 A3039 RMK AO2 T00500039
KMFV 220815Z AUTO 22003KT 10SM CLR 05/04 A3039 RMK AO2 T00510041
KMFV 220755Z AUTO 22004KT 10SM CLR 05/04 A3040 RMK AO2 T00500037
KMFV 220735Z AUTO 22004KT 10SM CLR 06/04 A3040 RMK AO2 T00560042
KMFV 220715Z AUTO 22004KT 10SM CLR 05/04 A3040 RMK AO2 T00530040